sensor_id;sensor_type;location;lat;lon;timestamp;pressure;altitude;pressure_sealevel;temperature;humidity
70200;BME280;57587;55.688;37.600;2023-04-06T00:01:04;100174.75;;;7.07;59.46
70200;BME280;57587;55.688;37.600;2023-04-06T00:03:31;100178.25;;;7.07;59.64
70200;BME280;57587;55.688;37.600;2023-04-06T00:05:58;100173.91;;;7.06;59.21
70200;BME280;57587;55.688;37.600;2023-04-06T00:08:26;100181.03;;;7.06;59.32
70200;BME280;57587;55.688;37.600;2023-04-06T00:10:53;100178.66;;;7.03;59.30
70200;BME280;57587;55.688;37.600;2023-04-06T00:13:20;100182.91;;;6.96;59.94
70200;BME280;57587;55.688;37.600;2023-04-06T00:15:47;100179.94;;;6.99;59.44
70200;BME280;57587;55.688;37.600;2023-04-06T00:18:14;100175.34;;;7.01;59.79
70200;BME280;57587;55.688;37.600;2023-04-06T00:20:41;100182.78;;;6.97;59.60
70200;BME280;57587;55.688;37.600;2023-04-06T00:23:09;100167.19;;;7.02;59.71
70200;BME280;57587;55.688;37.600;2023-04-06T00:25:36;100172.50;;;7.02;59.43
70200;BME280;57587;55.688;37.600;2023-04-06T00:28:03;100178.06;;;7.09;59.44
70200;BME280;57587;55.688;37.600;2023-04-06T00:30:30;100182.03;;;7.05;59.35
70200;BME280;57587;55.688;37.600;2023-04-06T00:32:57;100182.03;;;7.05;59.48
70200;BME280;57587;55.688;37.600;2023-04-06T00:35:24;100176.59;;;6.97;59.45
70200;BME280;57587;55.688;37.600;2023-04-06T00:37:52;100177.00;;;7.02;59.64
70200;BME280;57587;55.688;37.600;2023-04-06T00:40:19;100179.94;;;6.99;59.88
70200;BME280;57587;55.688;37.600;2023-04-06T00:42:46;100171.53;;;7.03;59.37
70200;BME280;57587;55.688;37.600;2023-04-06T00:45:13;100177.41;;;7.07;59.64
70200;BME280;57587;55.688;37.600;2023-04-06T00:47:40;100172.47;;;7.12;59.31
70200;BME280;57587;55.688;37.600;2023-04-06T00:50:08;100173.63;;;7.09;59.02
70200;BME280;57587;55.688;37.600;2023-04-06T00:52:35;100175.28;;;7.10;59.14
70200;BME280;57587;55.688;37.600;2023-04-06T00:55:04;100174.16;;;7.13;59.29
70200;BME280;57587;55.688;37.600;2023-04-06T00:57:37;100175.00;;;7.13;59.22
70200;BME280;57587;55.688;37.600;2023-04-06T01:00:05;100173.88;;;7.16;59.21
70200;BME280;57587;55.688;37.600;2023-04-06T01:02:34;100168.25;;;7.19;58.93
70200;BME280;57587;55.688;37.600;2023-04-06T01:05:02;100169.66;;;7.13;58.71
70200;BME280;57587;55.688;37.600;2023-04-06T01:07:46;100176.16;;;7.01;59.33
70200;BME280;57587;55.688;37.600;2023-04-06T01:10:28;100165.66;;;7.00;59.49
70200;BME280;57587;55.688;37.600;2023-04-06T01:13:02;100160.03;;;7.03;59.52
70200;BME280;57587;55.688;37.600;2023-04-06T01:15:48;100171.13;;;6.98;59.18
70200;BME280;57587;55.688;37.600;2023-04-06T01:18:28;100161.19;;;7.00;59.43
70200;BME280;57587;55.688;37.600;2023-04-06T01:21:18;100169.47;;;6.97;59.57
70200;BME280;57587;55.688;37.600;2023-04-06T01:24:17;100164.84;;;6.89;59.83
70200;BME280;57587;55.688;37.600;2023-04-06T01:27:10;100170.34;;;6.88;59.64
70200;BME280;57587;55.688;37.600;2023-04-06T01:29:53;100166.81;;;6.87;59.84
70200;BME280;57587;55.688;37.600;2023-04-06T01:32:49;100154.81;;;6.83;60.10
70200;BME280;57587;55.688;37.600;2023-04-06T01:35:25;100159.75;;;6.78;59.75
70200;BME280;57587;55.688;37.600;2023-04-06T01:38:02;100156.91;;;6.80;60.03
70200;BME280;57587;55.688;37.600;2023-04-06T01:40:32;100166.47;;;6.73;60.08
70200;BME280;57587;55.688;37.600;2023-04-06T01:42:59;100160.59;;;6.69;60.39
70200;BME280;57587;55.688;37.600;2023-04-06T01:45:33;100161.00;;;6.74;60.07
70200;BME280;57587;55.688;37.600;2023-04-06T01:48:11;100163.94;;;6.71;59.99
70200;BME280;57587;55.688;37.600;2023-04-06T01:50:38;100164.47;;;6.75;60.13
70200;BME280;57587;55.688;37.600;2023-04-06T01:53:07;100165.06;;;6.68;60.29
70200;BME280;57587;55.688;37.600;2023-04-06T01:55:36;100161.44;;;6.69;60.10
70200;BME280;57587;55.688;37.600;2023-04-06T01:58:21;100160.47;;;6.61;60.13
70200;BME280;57587;55.688;37.600;2023-04-06T02:00:48;100168.59;;;6.69;60.14
70200;BME280;57587;55.688;37.600;2023-04-06T02:03:16;100163.94;;;6.71;60.28
70200;BME280;57587;55.688;37.600;2023-04-06T02:05:45;100165.94;;;6.69;60.23
70200;BME280;57587;55.688;37.600;2023-04-06T02:08:19;100161.19;;;6.63;60.07
70200;BME280;57587;55.688;37.600;2023-04-06T02:10:47;100173.47;;;6.64;60.26
70200;BME280;57587;55.688;37.600;2023-04-06T02:13:24;100169.00;;;6.64;60.17
70200;BME280;57587;55.688;37.600;2023-04-06T02:15:53;100172.09;;;6.60;60.15
70200;BME280;57587;55.688;37.600;2023-04-06T02:18:20;100169.44;;;6.60;60.21
70200;BME280;57587;55.688;37.600;2023-04-06T02:20:48;100174.88;;;6.68;59.97
70200;BME280;57587;55.688;37.600;2023-04-06T02:23:15;100174.03;;;6.67;60.49
70200;BME280;57587;55.688;37.600;2023-04-06T02:25:42;100168.75;;;6.58;60.15
70200;BME280;57587;55.688;37.600;2023-04-06T02:28:09;100172.38;;;6.57;60.29
70200;BME280;57587;55.688;37.600;2023-04-06T02:30:36;100178.94;;;6.53;60.30
70200;BME280;57587;55.688;37.600;2023-04-06T02:33:04;100185.97;;;6.54;60.37
70200;BME280;57587;55.688;37.600;2023-04-06T02:35:40;100178.28;;;6.51;60.10
70200;BME280;57587;55.688;37.600;2023-04-06T02:38:07;100183.31;;;6.54;60.19
70200;BME280;57587;55.688;37.600;2023-04-06T02:40:34;100192.25;;;6.53;60.13
70200;BME280;57587;55.688;37.600;2023-04-06T02:43:12;100186.25;;;6.51;60.53
70200;BME280;57587;55.688;37.600;2023-04-06T02:45:39;100196.59;;;6.54;60.22
70200;BME280;57587;55.688;37.600;2023-04-06T02:48:08;100191.97;;;6.56;60.31
70200;BME280;57587;55.688;37.600;2023-04-06T02:50:36;100199.25;;;6.54;59.94
70200;BME280;57587;55.688;37.600;2023-04-06T02:53:05;100198.13;;;6.46;59.80
70200;BME280;57587;55.688;37.600;2023-04-06T02:55:34;100203.44;;;6.46;59.89
70200;BME280;57587;55.688;37.600;2023-04-06T02:58:02;100203.31;;;6.48;60.18
70200;BME280;57587;55.688;37.600;2023-04-06T03:00:37;100206.53;;;6.52;60.09
70200;BME280;57587;55.688;37.600;2023-04-06T03:03:04;100210.84;;;6.53;60.16
70200;BME280;57587;55.688;37.600;2023-04-06T03:05:31;100212.69;;;6.52;59.73
70200;BME280;57587;55.688;37.600;2023-04-06T03:07:58;100208.34;;;6.61;59.46
70200;BME280;57587;55.688;37.600;2023-04-06T03:10:36;100209.31;;;6.60;59.23
70200;BME280;57587;55.688;37.600;2023-04-06T03:13:03;100212.66;;;6.62;59.42
70200;BME280;57587;55.688;37.600;2023-04-06T03:15:43;100213.38;;;6.64;59.07
70200;BME280;57587;55.688;37.600;2023-04-06T03:18:14;100210.13;;;6.70;59.25
70200;BME280;57587;55.688;37.600;2023-04-06T03:20:45;100209.69;;;6.75;58.63
70200;BME280;57587;55.688;37.600;2023-04-06T03:23:15;100207.28;;;6.81;58.50
70200;BME280;57587;55.688;37.600;2023-04-06T03:25:44;100219.06;;;6.88;58.62
70200;BME280;57587;55.688;37.600;2023-04-06T03:28:16;100223.09;;;6.92;58.22
70200;BME280;57587;55.688;37.600;2023-04-06T03:30:49;100220.16;;;6.96;58.21
70200;BME280;57587;55.688;37.600;2023-04-06T03:33:22;100229.38;;;7.01;58.26
70200;BME280;57587;55.688;37.600;2023-04-06T03:35:53;100226.00;;;6.99;57.81
70200;BME280;57587;55.688;37.600;2023-04-06T03:38:24;100226.25;;;7.06;57.66
70200;BME280;57587;55.688;37.600;2023-04-06T03:40:52;100235.38;;;7.13;57.67
70200;BME280;57587;55.688;37.600;2023-04-06T03:43:23;100228.19;;;7.23;57.23
70200;BME280;57587;55.688;37.600;2023-04-06T03:45:50;100234.44;;;7.32;57.02
70200;BME280;57587;55.688;37.600;2023-04-06T03:48:17;100237.06;;;7.42;56.88
70200;BME280;57587;55.688;37.600;2023-04-06T03:50:44;100233.13;;;7.46;56.32
70200;BME280;57587;55.688;37.600;2023-04-06T03:53:11;100238.84;;;7.78;55.95
70200;BME280;57587;55.688;37.600;2023-04-06T03:55:38;100240.25;;;8.18;54.65
70200;BME280;57587;55.688;37.600;2023-04-06T03:58:06;100248.13;;;8.82;53.06
70200;BME280;57587;55.688;37.600;2023-04-06T04:00:33;100235.47;;;9.44;50.50
70200;BME280;57587;55.688;37.600;2023-04-06T04:03:00;100242.53;;;10.04;48.86
70200;BME280;57587;55.688;37.600;2023-04-06T04:05:29;100245.44;;;10.76;47.30
70200;BME280;57587;55.688;37.600;2023-04-06T04:07:56;100238.91;;;11.50;46.08
70200;BME280;57587;55.688;37.600;2023-04-06T04:10:26;100249.69;;;12.13;44.05
70200;BME280;57587;55.688;37.600;2023-04-06T04:12:53;100235.84;;;12.70;42.60
70200;BME280;57587;55.688;37.600;2023-04-06T04:15:20;100248.75;;;13.42;41.06
70200;BME280;57587;55.688;37.600;2023-04-06T04:17:47;100249.47;;;14.02;39.42
70200;BME280;57587;55.688;37.600;2023-04-06T04:20:16;100247.16;;;14.35;38.41
70200;BME280;57587;55.688;37.600;2023-04-06T04:22:43;100253.84;;;14.89;37.46
70200;BME280;57587;55.688;37.600;2023-04-06T04:25:11;100242.03;;;15.46;36.44
70200;BME280;57587;55.688;37.600;2023-04-06T04:27:43;100250.78;;;15.96;35.27
70200;BME280;57587;55.688;37.600;2023-04-06T04:30:11;100252.94;;;16.47;34.42
70200;BME280;57587;55.688;37.600;2023-04-06T04:32:38;100251.16;;;17.01;33.53
70200;BME280;57587;55.688;37.600;2023-04-06T04:35:09;100254.25;;;17.18;32.58
70200;BME280;57587;55.688;37.600;2023-04-06T04:37:41;100257.06;;;17.63;32.07
70200;BME280;57587;55.688;37.600;2023-04-06T04:40:09;100253.47;;;18.27;31.20
70200;BME280;57587;55.688;37.600;2023-04-06T04:42:49;100254.00;;;18.74;30.19
70200;BME280;57587;55.688;37.600;2023-04-06T04:45:27;100249.81;;;19.22;29.41
70200;BME280;57587;55.688;37.600;2023-04-06T04:47:56;100254.91;;;19.73;28.47
70200;BME280;57587;55.688;37.600;2023-04-06T04:50:28;100251.69;;;20.13;27.80
70200;BME280;57587;55.688;37.600;2023-04-06T04:52:57;100255.50;;;20.54;27.30
70200;BME280;57587;55.688;37.600;2023-04-06T04:55:26;100251.22;;;21.00;26.63
70200;BME280;57587;55.688;37.600;2023-04-06T04:57:57;100252.50;;;20.86;26.80
70200;BME280;57587;55.688;37.600;2023-04-06T05:00:37;100262.19;;;21.17;26.12
70200;BME280;57587;55.688;37.600;2023-04-06T05:03:05;100249.53;;;20.99;26.20
70200;BME280;57587;55.688;37.600;2023-04-06T05:05:43;100253.34;;;21.22;25.91
70200;BME280;57587;55.688;37.600;2023-04-06T05:08:17;100254.78;;;21.36;25.68
70200;BME280;57587;55.688;37.600;2023-04-06T05:10:47;100252.03;;;21.59;25.46
70200;BME280;57587;55.688;37.600;2023-04-06T05:13:15;100248.38;;;21.94;25.00
70200;BME280;57587;55.688;37.600;2023-04-06T05:15:45;100252.44;;;22.49;24.09
70200;BME280;57587;55.688;37.600;2023-04-06T05:18:28;100250.09;;;22.58;23.91
70200;BME280;57587;55.688;37.600;2023-04-06T05:20:56;100259.75;;;22.94;23.43
70200;BME280;57587;55.688;37.600;2023-04-06T05:23:32;100252.44;;;23.16;23.00
70200;BME280;57587;55.688;37.600;2023-04-06T05:26:01;100260.75;;;23.82;22.83
70200;BME280;57587;55.688;37.600;2023-04-06T05:28:29;100261.03;;;24.08;22.05
70200;BME280;57587;55.688;37.600;2023-04-06T05:30:56;100246.78;;;24.55;21.77
70200;BME280;57587;55.688;37.600;2023-04-06T05:33:26;100255.91;;;24.98;21.14
70200;BME280;57587;55.688;37.600;2023-04-06T05:36:02;100253.97;;;25.30;20.93
70200;BME280;57587;55.688;37.600;2023-04-06T05:38:30;100259.41;;;25.78;20.37
70200;BME280;57587;55.688;37.600;2023-04-06T05:41:04;100254.88;;;26.09;19.79
70200;BME280;57587;55.688;37.600;2023-04-06T05:43:33;100250.81;;;26.37;19.35
70200;BME280;57587;55.688;37.600;2023-04-06T05:46:01;100256.03;;;26.44;19.41
70200;BME280;57587;55.688;37.600;2023-04-06T05:48:28;100253.06;;;26.56;18.97
70200;BME280;57587;55.688;37.600;2023-04-06T05:50:56;100255.00;;;27.01;18.87
70200;BME280;57587;55.688;37.600;2023-04-06T05:53:30;100255.00;;;27.01;18.42
70200;BME280;57587;55.688;37.600;2023-04-06T05:56:02;100257.16;;;27.35;18.54
70200;BME280;57587;55.688;37.600;2023-04-06T05:58:30;100261.38;;;27.87;18.18
70200;BME280;57587;55.688;37.600;2023-04-06T06:01:01;100266.22;;;28.16;17.72
70200;BME280;57587;55.688;37.600;2023-04-06T06:03:37;100257.25;;;28.39;17.75
70200;BME280;57587;55.688;37.600;2023-04-06T06:06:05;100265.50;;;28.44;17.65
70200;BME280;57587;55.688;37.600;2023-04-06T06:08:47;100266.31;;;28.40;17.39
70200;BME280;57587;55.688;37.600;2023-04-06T06:11:16;100260.03;;;28.34;16.97
70200;BME280;57587;55.688;37.600;2023-04-06T06:13:43;100261.88;;;28.49;17.37
70200;BME280;57587;55.688;37.600;2023-04-06T06:16:11;100255.06;;;29.10;16.84
70200;BME280;57587;55.688;37.600;2023-04-06T06:18:43;100254.88;;;29.30;16.48
70200;BME280;57587;55.688;37.600;2023-04-06T06:21:11;100255.00;;;29.44;16.47
70200;BME280;57587;55.688;37.600;2023-04-06T06:23:39;100245.13;;;29.67;16.18
70200;BME280;57587;55.688;37.600;2023-04-06T06:26:06;100242.84;;;29.45;16.12
70200;BME280;57587;55.688;37.600;2023-04-06T06:28:33;100252.53;;;29.42;16.31
70200;BME280;57587;55.688;37.600;2023-04-06T06:31:01;100245.97;;;29.62;16.03
70200;BME280;57587;55.688;37.600;2023-04-06T06:33:28;100241.63;;;29.80;16.29
70200;BME280;57587;55.688;37.600;2023-04-06T06:35:57;100248.41;;;30.07;15.73
70200;BME280;57587;55.688;37.600;2023-04-06T06:38:24;100249.88;;;30.42;15.47
70200;BME280;57587;55.688;37.600;2023-04-06T06:40:52;100245.50;;;30.74;15.40
70200;BME280;57587;55.688;37.600;2023-04-06T06:43:20;100253.91;;;31.15;15.21
70200;BME280;57587;55.688;37.600;2023-04-06T06:46:00;100246.81;;;31.56;14.82
70200;BME280;57587;55.688;37.600;2023-04-06T06:48:28;100249.88;;;31.82;14.37
70200;BME280;57587;55.688;37.600;2023-04-06T06:50:55;100242.47;;;32.05;14.59
70200;BME280;57587;55.688;37.600;2023-04-06T06:53:23;100249.44;;;32.38;14.20
70200;BME280;57587;55.688;37.600;2023-04-06T06:55:50;100245.03;;;32.74;13.85
70200;BME280;57587;55.688;37.600;2023-04-06T06:58:18;100245.94;;;32.92;13.34
70200;BME280;57587;55.688;37.600;2023-04-06T07:00:48;100245.88;;;32.38;13.57
70200;BME280;57587;55.688;37.600;2023-04-06T07:03:16;100251.03;;;32.31;13.47
70200;BME280;57587;55.688;37.600;2023-04-06T07:05:46;100242.06;;;32.70;13.81
70200;BME280;57587;55.688;37.600;2023-04-06T07:08:21;100251.94;;;32.63;13.69
70200;BME280;57587;55.688;37.600;2023-04-06T07:10:50;100243.53;;;32.68;13.26
70200;BME280;57587;55.688;37.600;2023-04-06T07:13:24;100242.03;;;33.15;13.59
70200;BME280;57587;55.688;37.600;2023-04-06T07:15:56;100243.09;;;33.37;13.48
70200;BME280;57587;55.688;37.600;2023-04-06T07:18:23;100242.28;;;33.36;13.09
70200;BME280;57587;55.688;37.600;2023-04-06T07:20:50;100246.91;;;33.49;12.89
70200;BME280;57587;55.688;37.600;2023-04-06T07:23:18;100243.91;;;33.37;12.75
70200;BME280;57587;55.688;37.600;2023-04-06T07:25:45;100242.88;;;33.56;12.56
70200;BME280;57587;55.688;37.600;2023-04-06T07:28:12;100244.13;;;33.10;13.21
70200;BME280;57587;55.688;37.600;2023-04-06T07:30:40;100239.94;;;33.21;13.32
70200;BME280;57587;55.688;37.600;2023-04-06T07:33:09;100234.41;;;33.69;13.09
70200;BME280;57587;55.688;37.600;2023-04-06T07:35:37;100245.75;;;33.99;12.51
70200;BME280;57587;55.688;37.600;2023-04-06T07:38:05;100244.31;;;34.10;12.38
70200;BME280;57587;55.688;37.600;2023-04-06T07:40:34;100242.00;;;34.04;12.44
70200;BME280;57587;55.688;37.600;2023-04-06T07:43:02;100235.78;;;33.98;12.41
70200;BME280;57587;55.688;37.600;2023-04-06T07:45:30;100239.59;;;34.11;12.38
70200;BME280;57587;55.688;37.600;2023-04-06T07:47:58;100231.59;;;34.35;12.36
70200;BME280;57587;55.688;37.600;2023-04-06T07:50:31;100236.50;;;34.38;12.21
70200;BME280;57587;55.688;37.600;2023-04-06T07:52:58;100235.19;;;34.27;12.26
70200;BME280;57587;55.688;37.600;2023-04-06T07:55:27;100242.19;;;34.51;12.10
70200;BME280;57587;55.688;37.600;2023-04-06T07:57:54;100233.03;;;34.76;11.95
70200;BME280;57587;55.688;37.600;2023-04-06T08:00:21;100234.78;;;34.98;11.78
70200;BME280;57587;55.688;37.600;2023-04-06T08:02:48;100239.25;;;34.73;11.64
70200;BME280;57587;55.688;37.600;2023-04-06T08:05:16;100235.00;;;34.84;11.62
70200;BME280;57587;55.688;37.600;2023-04-06T08:07:44;100238.22;;;35.04;11.58
70200;BME280;57587;55.688;37.600;2023-04-06T08:10:11;100235.72;;;35.02;11.44
70200;BME280;57587;55.688;37.600;2023-04-06T08:12:38;100236.22;;;35.13;11.67
70200;BME280;57587;55.688;37.600;2023-04-06T08:15:06;100238.03;;;35.56;11.79
70200;BME280;57587;55.688;37.600;2023-04-06T08:17:33;100236.94;;;35.40;11.42
70200;BME280;57587;55.688;37.600;2023-04-06T08:20:01;100241.50;;;34.88;11.47
70200;BME280;57587;55.688;37.600;2023-04-06T08:22:30;100244.31;;;34.28;11.76
70200;BME280;57587;55.688;37.600;2023-04-06T08:24:57;100241.25;;;33.55;11.82
70200;BME280;57587;55.688;37.600;2023-04-06T08:27:25;100232.66;;;33.34;12.60
70200;BME280;57587;55.688;37.600;2023-04-06T08:29:52;100231.38;;;32.19;13.39
70200;BME280;57587;55.688;37.600;2023-04-06T08:32:19;100241.88;;;31.80;13.18
70200;BME280;57587;55.688;37.600;2023-04-06T08:34:46;100232.53;;;31.07;14.01
70200;BME280;57587;55.688;37.600;2023-04-06T08:37:13;100226.75;;;31.50;13.76
70200;BME280;57587;55.688;37.600;2023-04-06T08:39:40;100232.03;;;31.19;13.93
70200;BME280;57587;55.688;37.600;2023-04-06T08:42:13;100231.31;;;30.81;14.08
70200;BME280;57587;55.688;37.600;2023-04-06T08:44:43;100219.31;;;31.04;14.04
70200;BME280;57587;55.688;37.600;2023-04-06T08:47:12;100227.38;;;30.68;14.32
70200;BME280;57587;55.688;37.600;2023-04-06T08:49:40;100218.84;;;30.31;14.35
70200;BME280;57587;55.688;37.600;2023-04-06T08:52:10;100223.31;;;30.98;14.34
70200;BME280;57587;55.688;37.600;2023-04-06T08:54:38;100217.06;;;31.20;14.27
70200;BME280;57587;55.688;37.600;2023-04-06T08:57:07;100215.84;;;31.81;14.03
70200;BME280;57587;55.688;37.600;2023-04-06T08:59:34;100231.19;;;31.18;13.57
70200;BME280;57587;55.688;37.600;2023-04-06T09:02:04;100224.72;;;30.06;14.57
70200;BME280;57587;55.688;37.600;2023-04-06T09:04:35;100220.53;;;29.71;14.98
70200;BME280;57587;55.688;37.600;2023-04-06T09:07:03;100214.91;;;29.76;15.13
70200;BME280;57587;55.688;37.600;2023-04-06T09:09:30;100221.53;;;29.99;14.78
70200;BME280;57587;55.688;37.600;2023-04-06T09:11:57;100219.19;;;30.06;14.76
70200;BME280;57587;55.688;37.600;2023-04-06T09:14:38;100214.13;;;30.13;14.64
70200;BME280;57587;55.688;37.600;2023-04-06T09:17:06;100214.75;;;29.19;15.09
70200;BME280;57587;55.688;37.600;2023-04-06T09:19:33;100215.34;;;28.87;15.68
70200;BME280;57587;55.688;37.600;2023-04-06T09:22:05;100216.47;;;29.15;15.52
70200;BME280;57587;55.688;37.600;2023-04-06T09:24:51;100209.09;;;28.76;15.57
70200;BME280;57587;55.688;37.600;2023-04-06T09:27:33;100212.84;;;28.56;15.99
70200;BME280;57587;55.688;37.600;2023-04-06T09:30:09;100212.50;;;28.63;16.00
70200;BME280;57587;55.688;37.600;2023-04-06T09:32:49;100208.97;;;28.18;15.97
70200;BME280;57587;55.688;37.600;2023-04-06T09:35:17;100206.81;;;27.50;16.41
70200;BME280;57587;55.688;37.600;2023-04-06T09:37:48;100207.22;;;26.87;16.81
70200;BME280;57587;55.688;37.600;2023-04-06T09:40:21;100195.50;;;25.67;18.02
70200;BME280;57587;55.688;37.600;2023-04-06T09:42:50;100208.59;;;24.38;19.64
70200;BME280;57587;55.688;37.600;2023-04-06T09:45:19;100207.00;;;24.15;19.81
70200;BME280;57587;55.688;37.600;2023-04-06T09:47:48;100208.63;;;23.67;20.14
70200;BME280;57587;55.688;37.600;2023-04-06T09:50:17;100209.69;;;23.44;20.55
70200;BME280;57587;55.688;37.600;2023-04-06T09:52:50;100213.00;;;22.56;21.46
70200;BME280;57587;55.688;37.600;2023-04-06T09:55:30;100203.50;;;22.14;22.01
70200;BME280;57587;55.688;37.600;2023-04-06T09:58:05;100202.53;;;21.91;22.26
70200;BME280;57587;55.688;37.600;2023-04-06T10:00:41;100202.09;;;21.82;22.56
70200;BME280;57587;55.688;37.600;2023-04-06T10:05:57;100196.91;;;21.81;22.60
70200;BME280;57587;55.688;37.600;2023-04-06T10:08:28;100187.63;;;21.65;22.90
70200;BME280;57587;55.688;37.600;2023-04-06T10:11:00;100183.91;;;21.07;23.53
70200;BME280;57587;55.688;37.600;2023-04-06T10:13:28;100187.66;;;20.59;24.01
70200;BME280;57587;55.688;37.600;2023-04-06T10:15:55;100194.91;;;20.23;24.48
70200;BME280;57587;55.688;37.600;2023-04-06T10:18:24;100191.13;;;20.24;24.70
70200;BME280;57587;55.688;37.600;2023-04-06T10:20:55;100188.75;;;20.28;24.98
70200;BME280;57587;55.688;37.600;2023-04-06T10:23:31;100199.56;;;19.74;25.27
70200;BME280;57587;55.688;37.600;2023-04-06T10:26:00;100187.41;;;19.58;25.16
70200;BME280;57587;55.688;37.600;2023-04-06T10:28:35;100194.28;;;19.61;25.17
70200;BME280;57587;55.688;37.600;2023-04-06T10:31:05;100198.81;;;19.49;25.39
70200;BME280;57587;55.688;37.600;2023-04-06T10:33:33;100191.13;;;19.46;25.47
70200;BME280;57587;55.688;37.600;2023-04-06T10:36:14;100195.63;;;19.52;25.63
70200;BME280;57587;55.688;37.600;2023-04-06T10:38:42;100191.25;;;19.69;25.64
70200;BME280;57587;55.688;37.600;2023-04-06T10:41:11;100198.41;;;19.64;25.09
70200;BME280;57587;55.688;37.600;2023-04-06T10:43:40;100193.59;;;19.47;25.59
70200;BME280;57587;55.688;37.600;2023-04-06T10:46:08;100187.13;;;19.30;25.55
70200;BME280;57587;55.688;37.600;2023-04-06T10:51:07;100190.69;;;18.62;26.55
70200;BME280;57587;55.688;37.600;2023-04-06T10:53:35;100185.66;;;18.65;26.70
70200;BME280;57587;55.688;37.600;2023-04-06T10:56:02;100194.38;;;18.74;26.52
70200;BME280;57587;55.688;37.600;2023-04-06T10:58:29;100187.06;;;18.75;26.63
70200;BME280;57587;55.688;37.600;2023-04-06T11:00:57;100193.72;;;18.72;26.32
70200;BME280;57587;55.688;37.600;2023-04-06T11:03:25;100201.59;;;18.80;26.36
70200;BME280;57587;55.688;37.600;2023-04-06T11:05:54;100187.97;;;18.37;26.79
70200;BME280;57587;55.688;37.600;2023-04-06T11:08:31;100184.25;;;18.31;26.94
70200;BME280;57587;55.688;37.600;2023-04-06T11:11:06;100188.13;;;18.10;26.94
70200;BME280;57587;55.688;37.600;2023-04-06T11:16:40;100190.34;;;17.88;27.61
70200;BME280;57587;55.688;37.600;2023-04-06T11:19:07;100190.31;;;17.50;27.55
70200;BME280;57587;55.688;37.600;2023-04-06T11:21:45;100177.72;;;17.11;28.26
70200;BME280;57587;55.688;37.600;2023-04-06T11:24:17;100195.44;;;16.87;28.26
70200;BME280;57587;55.688;37.600;2023-04-06T11:26:57;100191.50;;;16.76;29.06
70200;BME280;57587;55.688;37.600;2023-04-06T11:29:29;100183.19;;;16.51;29.68
70200;BME280;57587;55.688;37.600;2023-04-06T11:31:59;100181.50;;;16.56;29.62
70200;BME280;57587;55.688;37.600;2023-04-06T11:34:29;100177.34;;;16.60;29.58
70200;BME280;57587;55.688;37.600;2023-04-06T11:36:59;100175.25;;;16.63;29.63
70200;BME280;57587;55.688;37.600;2023-04-06T11:39:27;100176.94;;;16.64;29.41
70200;BME280;57587;55.688;37.600;2023-04-06T11:41:58;100175.66;;;16.59;29.96
70200;BME280;57587;55.688;37.600;2023-04-06T11:44:34;100184.41;;;16.55;29.81
70200;BME280;57587;55.688;37.600;2023-04-06T11:47:04;100174.00;;;16.19;30.31
70200;BME280;57587;55.688;37.600;2023-04-06T11:49:33;100170.69;;;16.23;30.28
70200;BME280;57587;55.688;37.600;2023-04-06T11:52:01;100169.41;;;16.26;30.06
70200;BME280;57587;55.688;37.600;2023-04-06T11:54:36;100174.81;;;16.19;30.42
70200;BME280;57587;55.688;37.600;2023-04-06T11:57:05;100168.00;;;16.17;30.41
70200;BME280;57587;55.688;37.600;2023-04-06T11:59:33;100167.56;;;16.20;30.45
70200;BME280;57587;55.688;37.600;2023-04-06T12:02:04;100168.00;;;16.23;30.43
70200;BME280;57587;55.688;37.600;2023-04-06T12:04:32;100166.94;;;16.11;30.71
70200;BME280;57587;55.688;37.600;2023-04-06T12:06:59;100158.53;;;15.73;31.03
70200;BME280;57587;55.688;37.600;2023-04-06T12:09:27;100168.44;;;15.65;30.98
70200;BME280;57587;55.688;37.600;2023-04-06T12:11:54;100162.59;;;15.55;31.04
70200;BME280;57587;55.688;37.600;2023-04-06T12:14:21;100164.69;;;15.60;31.86
70200;BME280;57587;55.688;37.600;2023-04-06T12:16:49;100162.69;;;15.68;31.20
70200;BME280;57587;55.688;37.600;2023-04-06T12:19:16;100157.63;;;15.59;30.98
70200;BME280;57587;55.688;37.600;2023-04-06T12:21:44;100159.25;;;15.47;31.08
70200;BME280;57587;55.688;37.600;2023-04-06T12:24:11;100148.88;;;15.50;31.61
70200;BME280;57587;55.688;37.600;2023-04-06T12:26:38;100162.59;;;15.55;31.21
70200;BME280;57587;55.688;37.600;2023-04-06T12:29:05;100150.38;;;15.59;31.64
70200;BME280;57587;55.688;37.600;2023-04-06T12:31:36;100152.63;;;15.49;31.49
70200;BME280;57587;55.688;37.600;2023-04-06T12:34:06;100148.88;;;15.43;31.66
70200;BME280;57587;55.688;37.600;2023-04-06T12:36:33;100149.28;;;15.40;31.74
70200;BME280;57587;55.688;37.600;2023-04-06T12:39:00;100156.75;;;15.45;31.63
70200;BME280;57587;55.688;37.600;2023-04-06T12:41:28;100164.81;;;15.38;31.43
70200;BME280;57587;55.688;37.600;2023-04-06T12:43:55;100143.81;;;15.27;30.61
70200;BME280;57587;55.688;37.600;2023-04-06T12:46:23;100158.13;;;15.28;31.06
70200;BME280;57587;55.688;37.600;2023-04-06T12:48:51;100148.19;;;15.35;30.95
70200;BME280;57587;55.688;37.600;2023-04-06T12:51:20;100145.25;;;15.30;31.98
70200;BME280;57587;55.688;37.600;2023-04-06T12:53:48;100139.28;;;15.34;31.73
70200;BME280;57587;55.688;37.600;2023-04-06T12:56:17;100143.03;;;15.33;31.66
70200;BME280;57587;55.688;37.600;2023-04-06T12:58:44;100153.13;;;15.25;31.81
70200;BME280;57587;55.688;37.600;2023-04-06T13:01:13;100159.38;;;15.25;32.27
70200;BME280;57587;55.688;37.600;2023-04-06T13:03:41;100147.91;;;15.16;31.90
70200;BME280;57587;55.688;37.600;2023-04-06T13:06:09;100151.66;;;15.15;32.16